Terminal Aerodrome Forecast
Issued by NWS

Home | Current Version | Previous Version | Text Only | Print | Product List | Glossary On
Versions: 1 2 3 4 5 6 7 8 9 10 11 12 13 14
000
FTUS46 KPDT 311100
TAFBDN
TAF
KBDN 311120Z 3112/0112 21004KT P6SM SCT120 BKN200
     FM312100 33009KT P6SM VCTS SCT090CB BKN200
     FM010300 32007KT P6SM VCSH BKN140
     FM010600 VRB04KT P6SM BKN150=

USA.gov is the U.S. government's official web portal to all federal, state and local government web resources and services.